sensor_id;sensor_type;location;lat;lon;timestamp;P1;durP1;ratioP1;P2;durP2;ratioP2
1082;SDS011;530;51.448;7.238;2024-01-15T00:02:05;32.87;;;18.87;;
1082;SDS011;530;51.448;7.238;2024-01-15T00:04:35;27.37;;;18.57;;
1082;SDS011;530;51.448;7.238;2024-01-15T00:07:02;31.67;;;19.97;;
1082;SDS011;530;51.448;7.238;2024-01-15T00:09:28;33.77;;;21.67;;
1082;SDS011;530;51.448;7.238;2024-01-15T00:11:54;31.30;;;20.87;;
1082;SDS011;530;51.448;7.238;2024-01-15T00:14:19;31.37;;;19.13;;
1082;SDS011;530;51.448;7.238;2024-01-15T00:16:45;28.77;;;19.93;;
1082;SDS011;530;51.448;7.238;2024-01-15T00:19:11;38.70;;;22.47;;
1082;SDS011;530;51.448;7.238;2024-01-15T00:21:37;31.33;;;19.10;;
1082;SDS011;530;51.448;7.238;2024-01-15T00:24:03;31.33;;;19.60;;
1082;SDS011;530;51.448;7.238;2024-01-15T00:26:29;32.33;;;21.30;;
1082;SDS011;530;51.448;7.238;2024-01-15T00:28:55;36.50;;;20.83;;
1082;SDS011;530;51.448;7.238;2024-01-15T00:31:20;35.67;;;20.13;;
1082;SDS011;530;51.448;7.238;2024-01-15T00:33:46;31.60;;;20.40;;
1082;SDS011;530;51.448;7.238;2024-01-15T00:36:12;33.43;;;21.60;;
1082;SDS011;530;51.448;7.238;2024-01-15T00:38:38;30.47;;;19.33;;
1082;SDS011;530;51.448;7.238;2024-01-15T00:41:04;34.03;;;20.90;;
1082;SDS011;530;51.448;7.238;2024-01-15T00:43:30;32.10;;;21.07;;
1082;SDS011;530;51.448;7.238;2024-01-15T00:45:55;35.60;;;21.90;;
1082;SDS011;530;51.448;7.238;2024-01-15T00:48:21;31.77;;;20.17;;
1082;SDS011;530;51.448;7.238;2024-01-15T00:50:47;35.00;;;20.40;;
1082;SDS011;530;51.448;7.238;2024-01-15T00:53:12;32.53;;;21.20;;
1082;SDS011;530;51.448;7.238;2024-01-15T00:55:38;31.60;;;20.80;;
1082;SDS011;530;51.448;7.238;2024-01-15T00:58:04;28.10;;;18.67;;
1082;SDS011;530;51.448;7.238;2024-01-15T01:00:29;33.53;;;21.10;;
1082;SDS011;530;51.448;7.238;2024-01-15T01:02:55;30.63;;;19.80;;
1082;SDS011;530;51.448;7.238;2024-01-15T01:05:21;32.27;;;21.50;;
1082;SDS011;530;51.448;7.238;2024-01-15T01:07:46;33.90;;;21.40;;
1082;SDS011;530;51.448;7.238;2024-01-15T01:10:12;35.43;;;21.87;;
1082;SDS011;530;51.448;7.238;2024-01-15T01:12:37;34.50;;;20.57;;
1082;SDS011;530;51.448;7.238;2024-01-15T01:15:03;34.23;;;20.10;;
1082;SDS011;530;51.448;7.238;2024-01-15T01:17:29;30.40;;;19.93;;
1082;SDS011;530;51.448;7.238;2024-01-15T01:19:55;37.73;;;21.90;;
1082;SDS011;530;51.448;7.238;2024-01-15T01:22:21;27.13;;;19.10;;
1082;SDS011;530;51.448;7.238;2024-01-15T01:24:47;31.60;;;20.13;;
1082;SDS011;530;51.448;7.238;2024-01-15T01:27:12;26.50;;;18.03;;
1082;SDS011;530;51.448;7.238;2024-01-15T01:29:38;31.07;;;21.47;;
1082;SDS011;530;51.448;7.238;2024-01-15T01:32:04;29.50;;;19.13;;
1082;SDS011;530;51.448;7.238;2024-01-15T01:34:32;36.50;;;20.47;;
1082;SDS011;530;51.448;7.238;2024-01-15T01:37:04;28.17;;;19.50;;
1082;SDS011;530;51.448;7.238;2024-01-15T01:39:30;27.83;;;19.40;;
1082;SDS011;530;51.448;7.238;2024-01-15T01:41:56;30.97;;;20.80;;
1082;SDS011;530;51.448;7.238;2024-01-15T01:44:21;28.37;;;17.97;;
1082;SDS011;530;51.448;7.238;2024-01-15T01:46:47;27.10;;;19.63;;
1082;SDS011;530;51.448;7.238;2024-01-15T01:49:13;29.73;;;19.13;;
1082;SDS011;530;51.448;7.238;2024-01-15T01:51:39;27.03;;;18.47;;
1082;SDS011;530;51.448;7.238;2024-01-15T01:54:05;32.17;;;18.20;;
1082;SDS011;530;51.448;7.238;2024-01-15T01:56:33;34.03;;;20.10;;
1082;SDS011;530;51.448;7.238;2024-01-15T01:58:59;29.60;;;19.03;;
1082;SDS011;530;51.448;7.238;2024-01-15T02:01:25;30.30;;;18.10;;
1082;SDS011;530;51.448;7.238;2024-01-15T02:03:51;30.37;;;18.13;;
1082;SDS011;530;51.448;7.238;2024-01-15T02:06:17;26.67;;;18.83;;
1082;SDS011;530;51.448;7.238;2024-01-15T02:08:43;29.33;;;18.13;;
1082;SDS011;530;51.448;7.238;2024-01-15T02:11:09;28.23;;;19.20;;
1082;SDS011;530;51.448;7.238;2024-01-15T02:13:36;32.57;;;20.03;;
1082;SDS011;530;51.448;7.238;2024-01-15T02:16:01;27.40;;;18.50;;
1082;SDS011;530;51.448;7.238;2024-01-15T02:18:27;33.07;;;21.70;;
1082;SDS011;530;51.448;7.238;2024-01-15T02:20:52;31.80;;;19.10;;
1082;SDS011;530;51.448;7.238;2024-01-15T02:23:18;26.83;;;19.17;;
1082;SDS011;530;51.448;7.238;2024-01-15T02:25:45;28.27;;;18.77;;
1082;SDS011;530;51.448;7.238;2024-01-15T02:28:12;30.70;;;21.00;;
1082;SDS011;530;51.448;7.238;2024-01-15T02:30:42;29.80;;;19.00;;
1082;SDS011;530;51.448;7.238;2024-01-15T02:33:09;28.57;;;18.67;;
1082;SDS011;530;51.448;7.238;2024-01-15T02:35:35;26.03;;;18.63;;
1082;SDS011;530;51.448;7.238;2024-01-15T02:38:01;31.30;;;20.07;;
1082;SDS011;530;51.448;7.238;2024-01-15T02:40:30;27.70;;;17.70;;
1082;SDS011;530;51.448;7.238;2024-01-15T02:42:56;25.80;;;17.40;;
1082;SDS011;530;51.448;7.238;2024-01-15T02:45:22;29.77;;;18.73;;
1082;SDS011;530;51.448;7.238;2024-01-15T02:47:48;25.30;;;17.80;;
1082;SDS011;530;51.448;7.238;2024-01-15T02:50:14;29.73;;;18.03;;
1082;SDS011;530;51.448;7.238;2024-01-15T02:52:41;24.97;;;17.87;;
1082;SDS011;530;51.448;7.238;2024-01-15T02:55:06;24.63;;;17.30;;
1082;SDS011;530;51.448;7.238;2024-01-15T02:57:33;28.17;;;17.63;;
1082;SDS011;530;51.448;7.238;2024-01-15T02:59:58;24.53;;;17.00;;
1082;SDS011;530;51.448;7.238;2024-01-15T03:02:24;24.60;;;16.40;;
1082;SDS011;530;51.448;7.238;2024-01-15T03:04:50;28.93;;;17.27;;
1082;SDS011;530;51.448;7.238;2024-01-15T03:07:16;24.03;;;16.00;;
1082;SDS011;530;51.448;7.238;2024-01-15T03:09:41;25.90;;;16.03;;
1082;SDS011;530;51.448;7.238;2024-01-15T03:12:07;25.27;;;15.23;;
1082;SDS011;530;51.448;7.238;2024-01-15T03:14:33;22.03;;;14.90;;
1082;SDS011;530;51.448;7.238;2024-01-15T03:17:00;22.50;;;16.17;;
1082;SDS011;530;51.448;7.238;2024-01-15T03:19:26;26.67;;;14.97;;
1082;SDS011;530;51.448;7.238;2024-01-15T03:21:51;27.97;;;16.33;;
1082;SDS011;530;51.448;7.238;2024-01-15T03:24:17;26.40;;;16.00;;
1082;SDS011;530;51.448;7.238;2024-01-15T03:26:43;26.67;;;17.90;;
1082;SDS011;530;51.448;7.238;2024-01-15T03:29:08;25.10;;;15.63;;
1082;SDS011;530;51.448;7.238;2024-01-15T03:31:34;25.27;;;17.27;;
1082;SDS011;530;51.448;7.238;2024-01-15T03:34:00;25.13;;;17.07;;
1082;SDS011;530;51.448;7.238;2024-01-15T03:36:25;22.77;;;17.43;;
1082;SDS011;530;51.448;7.238;2024-01-15T03:38:51;26.80;;;17.60;;
1082;SDS011;530;51.448;7.238;2024-01-15T03:41:17;27.50;;;17.13;;
1082;SDS011;530;51.448;7.238;2024-01-15T03:43:43;24.90;;;17.03;;
1082;SDS011;530;51.448;7.238;2024-01-15T03:46:08;22.80;;;15.93;;
1082;SDS011;530;51.448;7.238;2024-01-15T03:48:36;21.60;;;14.90;;
1082;SDS011;530;51.448;7.238;2024-01-15T03:51:02;26.13;;;15.77;;
1082;SDS011;530;51.448;7.238;2024-01-15T03:53:28;29.07;;;16.20;;
1082;SDS011;530;51.448;7.238;2024-01-15T03:55:53;24.07;;;15.60;;
1082;SDS011;530;51.448;7.238;2024-01-15T03:58:19;26.83;;;17.60;;
1082;SDS011;530;51.448;7.238;2024-01-15T04:00:45;29.20;;;15.73;;
1082;SDS011;530;51.448;7.238;2024-01-15T04:03:10;21.20;;;14.13;;
1082;SDS011;530;51.448;7.238;2024-01-15T04:05:36;19.93;;;13.90;;
1082;SDS011;530;51.448;7.238;2024-01-15T04:08:03;20.13;;;13.70;;
1082;SDS011;530;51.448;7.238;2024-01-15T04:10:28;22.30;;;13.80;;
1082;SDS011;530;51.448;7.238;2024-01-15T04:12:54;24.53;;;13.63;;
1082;SDS011;530;51.448;7.238;2024-01-15T04:15:20;20.40;;;14.20;;
1082;SDS011;530;51.448;7.238;2024-01-15T04:17:45;19.60;;;13.27;;
1082;SDS011;530;51.448;7.238;2024-01-15T04:20:11;25.47;;;14.13;;
1082;SDS011;530;51.448;7.238;2024-01-15T04:22:37;19.73;;;12.83;;
1082;SDS011;530;51.448;7.238;2024-01-15T04:25:03;23.90;;;14.40;;
1082;SDS011;530;51.448;7.238;2024-01-15T04:27:29;22.20;;;14.13;;
1082;SDS011;530;51.448;7.238;2024-01-15T04:29:55;18.77;;;13.87;;
1082;SDS011;530;51.448;7.238;2024-01-15T04:32:20;18.43;;;13.67;;
1082;SDS011;530;51.448;7.238;2024-01-15T04:34:46;21.37;;;13.90;;
1082;SDS011;530;51.448;7.238;2024-01-15T04:37:13;18.80;;;13.40;;
1082;SDS011;530;51.448;7.238;2024-01-15T04:39:39;21.50;;;14.07;;
1082;SDS011;530;51.448;7.238;2024-01-15T04:42:04;19.47;;;14.07;;
1082;SDS011;530;51.448;7.238;2024-01-15T04:44:30;21.97;;;12.93;;
1082;SDS011;530;51.448;7.238;2024-01-15T04:46:56;19.33;;;12.10;;
1082;SDS011;530;51.448;7.238;2024-01-15T04:49:22;17.93;;;13.73;;
1082;SDS011;530;51.448;7.238;2024-01-15T04:51:47;22.63;;;15.13;;
1082;SDS011;530;51.448;7.238;2024-01-15T04:54:13;18.80;;;12.13;;
1082;SDS011;530;51.448;7.238;2024-01-15T04:56:43;19.60;;;11.80;;
1082;SDS011;530;51.448;7.238;2024-01-15T04:59:09;19.57;;;13.77;;
1082;SDS011;530;51.448;7.238;2024-01-15T05:01:35;21.17;;;13.13;;
1082;SDS011;530;51.448;7.238;2024-01-15T05:04:01;17.20;;;12.73;;
1082;SDS011;530;51.448;7.238;2024-01-15T05:06:27;20.10;;;13.20;;
1082;SDS011;530;51.448;7.238;2024-01-15T05:08:53;21.93;;;12.87;;
1082;SDS011;530;51.448;7.238;2024-01-15T05:11:18;20.87;;;13.33;;
1082;SDS011;530;51.448;7.238;2024-01-15T05:13:44;18.10;;;13.13;;
1082;SDS011;530;51.448;7.238;2024-01-15T05:16:10;18.40;;;13.60;;
1082;SDS011;530;51.448;7.238;2024-01-15T05:18:35;19.73;;;13.13;;
1082;SDS011;530;51.448;7.238;2024-01-15T05:21:02;18.17;;;12.73;;
1082;SDS011;530;51.448;7.238;2024-01-15T05:23:28;21.03;;;14.13;;
1082;SDS011;530;51.448;7.238;2024-01-15T05:25:55;19.20;;;13.67;;
1082;SDS011;530;51.448;7.238;2024-01-15T05:28:22;21.17;;;13.00;;
1082;SDS011;530;51.448;7.238;2024-01-15T05:30:47;19.10;;;13.70;;
1082;SDS011;530;51.448;7.238;2024-01-15T05:33:15;18.73;;;13.23;;
1082;SDS011;530;51.448;7.238;2024-01-15T05:35:41;20.97;;;14.13;;
1082;SDS011;530;51.448;7.238;2024-01-15T05:38:07;23.40;;;14.20;;
1082;SDS011;530;51.448;7.238;2024-01-15T05:40:33;20.10;;;12.90;;
1082;SDS011;530;51.448;7.238;2024-01-15T05:42:58;21.07;;;13.80;;
1082;SDS011;530;51.448;7.238;2024-01-15T05:45:25;20.17;;;13.23;;
1082;SDS011;530;51.448;7.238;2024-01-15T05:47:51;21.20;;;12.73;;
1082;SDS011;530;51.448;7.238;2024-01-15T05:50:17;21.13;;;13.47;;
1082;SDS011;530;51.448;7.238;2024-01-15T05:52:43;19.30;;;12.70;;
1082;SDS011;530;51.448;7.238;2024-01-15T05:55:09;20.00;;;13.00;;
1082;SDS011;530;51.448;7.238;2024-01-15T05:57:35;19.57;;;13.73;;
1082;SDS011;530;51.448;7.238;2024-01-15T06:00:02;26.10;;;13.50;;
1082;SDS011;530;51.448;7.238;2024-01-15T06:02:28;18.90;;;12.40;;
1082;SDS011;530;51.448;7.238;2024-01-15T06:04:54;20.37;;;13.13;;
1082;SDS011;530;51.448;7.238;2024-01-15T06:07:20;17.47;;;12.37;;
1082;SDS011;530;51.448;7.238;2024-01-15T06:09:45;18.47;;;12.70;;
1082;SDS011;530;51.448;7.238;2024-01-15T06:12:11;17.10;;;11.90;;
1082;SDS011;530;51.448;7.238;2024-01-15T06:14:37;21.40;;;13.63;;
1082;SDS011;530;51.448;7.238;2024-01-15T06:17:03;20.70;;;13.40;;
1082;SDS011;530;51.448;7.238;2024-01-15T06:19:29;23.50;;;15.20;;
1082;SDS011;530;51.448;7.238;2024-01-15T06:21:54;20.23;;;13.93;;
1082;SDS011;530;51.448;7.238;2024-01-15T06:24:20;17.67;;;12.50;;
1082;SDS011;530;51.448;7.238;2024-01-15T06:26:46;16.97;;;13.00;;
1082;SDS011;530;51.448;7.238;2024-01-15T06:29:12;18.27;;;13.23;;
1082;SDS011;530;51.448;7.238;2024-01-15T06:31:38;17.40;;;12.90;;
1082;SDS011;530;51.448;7.238;2024-01-15T06:34:03;17.70;;;13.43;;
1082;SDS011;530;51.448;7.238;2024-01-15T06:36:29;20.13;;;12.47;;
1082;SDS011;530;51.448;7.238;2024-01-15T06:38:55;21.03;;;13.30;;
1082;SDS011;530;51.448;7.238;2024-01-15T06:41:21;17.00;;;12.40;;
1082;SDS011;530;51.448;7.238;2024-01-15T06:43:47;19.00;;;12.03;;
1082;SDS011;530;51.448;7.238;2024-01-15T06:46:19;18.83;;;12.63;;
1082;SDS011;530;51.448;7.238;2024-01-15T06:48:48;18.27;;;13.60;;
1082;SDS011;530;51.448;7.238;2024-01-15T06:51:13;18.50;;;12.43;;
1082;SDS011;530;51.448;7.238;2024-01-15T06:53:40;21.97;;;13.50;;
1082;SDS011;530;51.448;7.238;2024-01-15T06:56:06;16.73;;;12.40;;
1082;SDS011;530;51.448;7.238;2024-01-15T06:58:31;19.90;;;13.50;;
1082;SDS011;530;51.448;7.238;2024-01-15T07:00:57;27.30;;;14.30;;
1082;SDS011;530;51.448;7.238;2024-01-15T07:03:23;19.57;;;12.13;;
1082;SDS011;530;51.448;7.238;2024-01-15T07:05:48;17.77;;;11.43;;
1082;SDS011;530;51.448;7.238;2024-01-15T07:08:14;17.67;;;12.00;;
1082;SDS011;530;51.448;7.238;2024-01-15T07:10:40;19.90;;;11.97;;
1082;SDS011;530;51.448;7.238;2024-01-15T07:13:06;18.93;;;12.77;;
1082;SDS011;530;51.448;7.238;2024-01-15T07:15:32;13.90;;;11.33;;
1082;SDS011;530;51.448;7.238;2024-01-15T07:17:57;17.73;;;11.17;;
1082;SDS011;530;51.448;7.238;2024-01-15T07:20:23;13.30;;;10.93;;
1082;SDS011;530;51.448;7.238;2024-01-15T07:22:49;10.90;;;9.63;;
1082;SDS011;530;51.448;7.238;2024-01-15T07:25:15;12.47;;;9.87;;
1082;SDS011;530;51.448;7.238;2024-01-15T07:27:41;15.37;;;8.63;;
1082;SDS011;530;51.448;7.238;2024-01-15T07:30:10;15.03;;;8.80;;
1082;SDS011;530;51.448;7.238;2024-01-15T07:32:36;15.53;;;8.90;;
1082;SDS011;530;51.448;7.238;2024-01-15T07:35:02;10.33;;;7.33;;
1082;SDS011;530;51.448;7.238;2024-01-15T07:37:28;9.03;;;7.17;;
1082;SDS011;530;51.448;7.238;2024-01-15T07:39:54;10.83;;;7.43;;
1082;SDS011;530;51.448;7.238;2024-01-15T07:42:20;9.00;;;5.70;;
1082;SDS011;530;51.448;7.238;2024-01-15T07:44:45;6.73;;;5.47;;
1082;SDS011;530;51.448;7.238;2024-01-15T07:47:12;8.47;;;6.60;;
1082;SDS011;530;51.448;7.238;2024-01-15T07:49:37;7.83;;;5.73;;
1082;SDS011;530;51.448;7.238;2024-01-15T07:52:03;6.40;;;5.73;;
1082;SDS011;530;51.448;7.238;2024-01-15T07:54:30;7.13;;;4.97;;
1082;SDS011;530;51.448;7.238;2024-01-15T07:56:57;7.73;;;5.67;;
1082;SDS011;530;51.448;7.238;2024-01-15T07:59:30;7.87;;;5.50;;
1082;SDS011;530;51.448;7.238;2024-01-15T08:01:56;5.50;;;5.00;;
1082;SDS011;530;51.448;7.238;2024-01-15T08:04:24;6.50;;;5.47;;
1082;SDS011;530;51.448;7.238;2024-01-15T08:06:49;7.77;;;5.30;;
1082;SDS011;530;51.448;7.238;2024-01-15T08:09:15;9.20;;;6.90;;
1082;SDS011;530;51.448;7.238;2024-01-15T08:11:41;8.43;;;7.53;;
1082;SDS011;530;51.448;7.238;2024-01-15T08:14:08;9.43;;;8.13;;
1082;SDS011;530;51.448;7.238;2024-01-15T08:16:34;14.70;;;9.20;;
1082;SDS011;530;51.448;7.238;2024-01-15T08:19:01;13.73;;;10.07;;
1082;SDS011;530;51.448;7.238;2024-01-15T08:21:26;14.10;;;10.30;;
1082;SDS011;530;51.448;7.238;2024-01-15T08:23:58;13.70;;;9.97;;
1082;SDS011;530;51.448;7.238;2024-01-15T08:26:25;12.90;;;9.77;;
1082;SDS011;530;51.448;7.238;2024-01-15T08:28:50;12.63;;;9.40;;
1082;SDS011;530;51.448;7.238;2024-01-15T08:31:16;11.93;;;9.20;;
1082;SDS011;530;51.448;7.238;2024-01-15T08:33:42;13.43;;;9.30;;
1082;SDS011;530;51.448;7.238;2024-01-15T08:36:09;10.37;;;9.27;;
1082;SDS011;530;51.448;7.238;2024-01-15T08:38:34;11.30;;;8.67;;
1082;SDS011;530;51.448;7.238;2024-01-15T08:41:00;11.90;;;8.33;;
1082;SDS011;530;51.448;7.238;2024-01-15T08:43:26;14.07;;;8.90;;
1082;SDS011;530;51.448;7.238;2024-01-15T08:45:52;11.47;;;9.40;;
1082;SDS011;530;51.448;7.238;2024-01-15T08:48:18;14.70;;;9.70;;
1082;SDS011;530;51.448;7.238;2024-01-15T08:50:44;10.90;;;9.30;;
1082;SDS011;530;51.448;7.238;2024-01-15T08:53:13;11.17;;;9.00;;
1082;SDS011;530;51.448;7.238;2024-01-15T08:55:39;11.90;;;9.33;;
1082;SDS011;530;51.448;7.238;2024-01-15T08:58:07;11.93;;;9.43;;
1082;SDS011;530;51.448;7.238;2024-01-15T09:00:33;11.70;;;9.67;;
1082;SDS011;530;51.448;7.238;2024-01-15T09:02:59;13.20;;;10.10;;
1082;SDS011;530;51.448;7.238;2024-01-15T09:05:25;11.30;;;10.00;;
1082;SDS011;530;51.448;7.238;2024-01-15T09:07:51;13.40;;;10.90;;
1082;SDS011;530;51.448;7.238;2024-01-15T09:10:17;11.53;;;10.17;;
1082;SDS011;530;51.448;7.238;2024-01-15T09:12:43;11.50;;;10.30;;
1082;SDS011;530;51.448;7.238;2024-01-15T09:15:09;11.53;;;10.07;;
1082;SDS011;530;51.448;7.238;2024-01-15T09:17:35;10.67;;;9.27;;
1082;SDS011;530;51.448;7.238;2024-01-15T09:20:00;12.37;;;9.60;;
1082;SDS011;530;51.448;7.238;2024-01-15T09:22:26;11.30;;;9.60;;
1082;SDS011;530;51.448;7.238;2024-01-15T09:24:52;10.80;;;9.37;;
1082;SDS011;530;51.448;7.238;2024-01-15T09:27:18;10.00;;;9.10;;
1082;SDS011;530;51.448;7.238;2024-01-15T09:29:43;11.63;;;9.80;;
1082;SDS011;530;51.448;7.238;2024-01-15T09:32:11;9.13;;;7.80;;
1082;SDS011;530;51.448;7.238;2024-01-15T09:34:37;8.43;;;7.53;;
1082;SDS011;530;51.448;7.238;2024-01-15T09:37:03;9.70;;;7.43;;
1082;SDS011;530;51.448;7.238;2024-01-15T09:39:29;9.40;;;8.37;;
1082;SDS011;530;51.448;7.238;2024-01-15T09:41:55;8.63;;;7.27;;
1082;SDS011;530;51.448;7.238;2024-01-15T09:44:22;10.40;;;7.77;;
1082;SDS011;530;51.448;7.238;2024-01-15T09:46:48;6.90;;;6.20;;
1082;SDS011;530;51.448;7.238;2024-01-15T09:49:17;7.60;;;6.73;;
1082;SDS011;530;51.448;7.238;2024-01-15T09:51:44;8.23;;;7.10;;
1082;SDS011;530;51.448;7.238;2024-01-15T09:54:10;6.97;;;6.27;;
1082;SDS011;530;51.448;7.238;2024-01-15T09:56:38;7.73;;;6.23;;
1082;SDS011;530;51.448;7.238;2024-01-15T09:59:04;7.70;;;6.53;;
1082;SDS011;530;51.448;7.238;2024-01-15T10:01:33;8.20;;;7.17;;
1082;SDS011;530;51.448;7.238;2024-01-15T10:04:01;10.93;;;7.67;;
1082;SDS011;530;51.448;7.238;2024-01-15T10:06:27;8.50;;;7.40;;
1082;SDS011;530;51.448;7.238;2024-01-15T10:08:53;9.17;;;6.97;;
1082;SDS011;530;51.448;7.238;2024-01-15T10:11:21;8.23;;;6.67;;
1082;SDS011;530;51.448;7.238;2024-01-15T10:13:47;7.30;;;6.60;;
1082;SDS011;530;51.448;7.238;2024-01-15T10:16:17;6.53;;;5.83;;
1082;SDS011;530;51.448;7.238;2024-01-15T10:18:42;7.37;;;6.60;;
1082;SDS011;530;51.448;7.238;2024-01-15T10:21:08;7.13;;;6.40;;
1082;SDS011;530;51.448;7.238;2024-01-15T10:23:34;9.27;;;7.03;;
1082;SDS011;530;51.448;7.238;2024-01-15T10:26:01;9.30;;;7.90;;
1082;SDS011;530;51.448;7.238;2024-01-15T10:28:27;7.47;;;6.17;;
1082;SDS011;530;51.448;7.238;2024-01-15T10:30:55;7.53;;;6.60;;
1082;SDS011;530;51.448;7.238;2024-01-15T10:33:22;8.30;;;6.90;;
1082;SDS011;530;51.448;7.238;2024-01-15T10:35:54;8.70;;;6.00;;
1082;SDS011;530;51.448;7.238;2024-01-15T10:38:21;6.60;;;5.47;;
1082;SDS011;530;51.448;7.238;2024-01-15T10:40:48;7.23;;;6.13;;
1082;SDS011;530;51.448;7.238;2024-01-15T10:43:17;5.37;;;4.50;;
1082;SDS011;530;51.448;7.238;2024-01-15T10:45:46;6.20;;;5.60;;
1082;SDS011;530;51.448;7.238;2024-01-15T10:48:13;8.27;;;4.53;;
1082;SDS011;530;51.448;7.238;2024-01-15T10:50:39;6.30;;;4.93;;
1082;SDS011;530;51.448;7.238;2024-01-15T10:53:05;4.87;;;4.37;;
1082;SDS011;530;51.448;7.238;2024-01-15T10:55:33;6.20;;;4.47;;
1082;SDS011;530;51.448;7.238;2024-01-15T10:58:02;6.43;;;5.20;;
1082;SDS011;530;51.448;7.238;2024-01-15T11:00:29;5.73;;;4.80;;
1082;SDS011;530;51.448;7.238;2024-01-15T11:02:55;6.50;;;4.60;;
1082;SDS011;530;51.448;7.238;2024-01-15T11:05:22;4.97;;;4.40;;
1082;SDS011;530;51.448;7.238;2024-01-15T11:07:48;6.07;;;4.67;;
1082;SDS011;530;51.448;7.238;2024-01-15T11:13:20;5.20;;;4.20;;
1082;SDS011;530;51.448;7.238;2024-01-15T11:18:27;6.30;;;4.30;;
1082;SDS011;530;51.448;7.238;2024-01-15T11:26:30;6.30;;;4.73;;
1082;SDS011;530;51.448;7.238;2024-01-15T11:28:58;4.73;;;4.03;;
1082;SDS011;530;51.448;7.238;2024-01-15T11:31:29;5.57;;;4.57;;
1082;SDS011;530;51.448;7.238;2024-01-15T11:34:14;5.63;;;5.03;;
1082;SDS011;530;51.448;7.238;2024-01-15T11:41:56;5.30;;;4.43;;
1082;SDS011;530;51.448;7.238;2024-01-15T11:44:22;5.03;;;4.53;;
1082;SDS011;530;51.448;7.238;2024-01-15T11:47:09;6.90;;;4.60;;
1082;SDS011;530;51.448;7.238;2024-01-15T11:52:21;9.13;;;5.47;;
1082;SDS011;530;51.448;7.238;2024-01-15T11:57:50;8.83;;;6.03;;
1082;SDS011;530;51.448;7.238;2024-01-15T12:00:19;5.43;;;3.40;;
1082;SDS011;530;51.448;7.238;2024-01-15T12:02:47;4.30;;;3.90;;
1082;SDS011;530;51.448;7.238;2024-01-15T12:05:14;5.00;;;4.00;;
1082;SDS011;530;51.448;7.238;2024-01-15T12:07:45;5.17;;;4.40;;
1082;SDS011;530;51.448;7.238;2024-01-15T12:10:17;5.53;;;4.30;;
1082;SDS011;530;51.448;7.238;2024-01-15T12:15:24;4.60;;;4.17;;
1082;SDS011;530;51.448;7.238;2024-01-15T12:17:51;4.40;;;4.00;;
1082;SDS011;530;51.448;7.238;2024-01-15T12:20:17;6.70;;;5.57;;
1082;SDS011;530;51.448;7.238;2024-01-15T12:22:43;4.60;;;4.17;;
1082;SDS011;530;51.448;7.238;2024-01-15T12:25:09;6.07;;;4.50;;
1082;SDS011;530;51.448;7.238;2024-01-15T12:27:35;8.07;;;5.10;;
1082;SDS011;530;51.448;7.238;2024-01-15T12:30:01;5.30;;;3.97;;
1082;SDS011;530;51.448;7.238;2024-01-15T12:32:28;5.33;;;3.70;;
1082;SDS011;530;51.448;7.238;2024-01-15T12:34:54;4.50;;;3.70;;
1082;SDS011;530;51.448;7.238;2024-01-15T12:37:20;4.50;;;3.77;;
1082;SDS011;530;51.448;7.238;2024-01-15T12:39:46;4.13;;;3.50;;
1082;SDS011;530;51.448;7.238;2024-01-15T12:42:16;3.83;;;3.43;;
1082;SDS011;530;51.448;7.238;2024-01-15T12:44:42;3.57;;;3.27;;
1082;SDS011;530;51.448;7.238;2024-01-15T12:47:08;8.10;;;3.97;;
1082;SDS011;530;51.448;7.238;2024-01-15T12:49:35;6.43;;;3.73;;
1082;SDS011;530;51.448;7.238;2024-01-15T12:52:02;6.30;;;4.43;;
1082;SDS011;530;51.448;7.238;2024-01-15T12:54:28;5.30;;;3.57;;
1082;SDS011;530;51.448;7.238;2024-01-15T12:56:54;5.50;;;4.00;;
1082;SDS011;530;51.448;7.238;2024-01-15T12:59:19;5.30;;;3.97;;
1082;SDS011;530;51.448;7.238;2024-01-15T13:01:45;10.53;;;9.27;;
1082;SDS011;530;51.448;7.238;2024-01-15T13:04:12;4.80;;;4.30;;
1082;SDS011;530;51.448;7.238;2024-01-15T13:06:50;4.43;;;3.97;;
1082;SDS011;530;51.448;7.238;2024-01-15T13:09:16;7.87;;;3.83;;
1082;SDS011;530;51.448;7.238;2024-01-15T13:11:45;7.13;;;4.70;;
1082;SDS011;530;51.448;7.238;2024-01-15T13:14:12;3.70;;;3.30;;
1082;SDS011;530;51.448;7.238;2024-01-15T13:16:41;4.47;;;3.57;;
1082;SDS011;530;51.448;7.238;2024-01-15T13:19:10;4.93;;;3.10;;
1082;SDS011;530;51.448;7.238;2024-01-15T13:21:41;4.20;;;3.80;;
1082;SDS011;530;51.448;7.238;2024-01-15T13:24:07;4.17;;;3.77;;
1082;SDS011;530;51.448;7.238;2024-01-15T13:26:34;5.90;;;3.70;;
1082;SDS011;530;51.448;7.238;2024-01-15T13:29:01;4.20;;;3.80;;
1082;SDS011;530;51.448;7.238;2024-01-15T13:31:27;5.43;;;4.20;;
1082;SDS011;530;51.448;7.238;2024-01-15T13:33:53;9.30;;;4.30;;
1082;SDS011;530;51.448;7.238;2024-01-15T13:36:20;8.50;;;4.50;;
1082;SDS011;530;51.448;7.238;2024-01-15T13:38:50;11.93;;;5.17;;
1082;SDS011;530;51.448;7.238;2024-01-15T13:41:16;7.53;;;4.40;;
1082;SDS011;530;51.448;7.238;2024-01-15T13:43:50;7.23;;;4.67;;
1082;SDS011;530;51.448;7.238;2024-01-15T13:46:18;6.97;;;4.63;;
1082;SDS011;530;51.448;7.238;2024-01-15T13:48:44;10.60;;;5.47;;
1082;SDS011;530;51.448;7.238;2024-01-15T13:51:09;6.40;;;5.60;;
1082;SDS011;530;51.448;7.238;2024-01-15T13:53:37;6.70;;;5.90;;
1082;SDS011;530;51.448;7.238;2024-01-15T13:56:03;5.30;;;4.87;;
1082;SDS011;530;51.448;7.238;2024-01-15T13:58:30;10.33;;;6.10;;
1082;SDS011;530;51.448;7.238;2024-01-15T14:00:56;6.50;;;5.20;;
1082;SDS011;530;51.448;7.238;2024-01-15T14:03:22;7.03;;;5.43;;
1082;SDS011;530;51.448;7.238;2024-01-15T14:05:47;6.53;;;5.60;;
1082;SDS011;530;51.448;7.238;2024-01-15T14:08:13;7.00;;;6.07;;
1082;SDS011;530;51.448;7.238;2024-01-15T14:10:39;7.80;;;6.30;;
1082;SDS011;530;51.448;7.238;2024-01-15T14:13:05;7.67;;;6.27;;
1082;SDS011;530;51.448;7.238;2024-01-15T14:15:30;9.50;;;7.50;;
1082;SDS011;530;51.448;7.238;2024-01-15T14:17:56;11.30;;;6.80;;
1082;SDS011;530;51.448;7.238;2024-01-15T14:20:23;11.57;;;6.93;;
1082;SDS011;530;51.448;7.238;2024-01-15T14:22:49;8.07;;;6.30;;
1082;SDS011;530;51.448;7.238;2024-01-15T14:25:14;7.03;;;5.90;;
1082;SDS011;530;51.448;7.238;2024-01-15T14:27:40;10.60;;;6.27;;
1082;SDS011;530;51.448;7.238;2024-01-15T14:30:06;6.33;;;5.73;;
1082;SDS011;530;51.448;7.238;2024-01-15T14:32:33;7.73;;;5.63;;
1082;SDS011;530;51.448;7.238;2024-01-15T14:34:59;9.97;;;6.17;;
1082;SDS011;530;51.448;7.238;2024-01-15T14:37:25;6.70;;;6.00;;
1082;SDS011;530;51.448;7.238;2024-01-15T14:39:51;7.33;;;6.43;;
1082;SDS011;530;51.448;7.238;2024-01-15T14:42:17;6.63;;;5.90;;
1082;SDS011;530;51.448;7.238;2024-01-15T14:44:43;9.23;;;6.50;;
1082;SDS011;530;51.448;7.238;2024-01-15T14:47:08;9.40;;;7.53;;
1082;SDS011;530;51.448;7.238;2024-01-15T14:49:34;9.40;;;6.80;;
1082;SDS011;530;51.448;7.238;2024-01-15T14:52:00;8.03;;;6.40;;
1082;SDS011;530;51.448;7.238;2024-01-15T14:54:26;6.90;;;6.20;;
1082;SDS011;530;51.448;7.238;2024-01-15T14:56:51;7.00;;;6.23;;
1082;SDS011;530;51.448;7.238;2024-01-15T14:59:17;7.10;;;6.40;;
1082;SDS011;530;51.448;7.238;2024-01-15T15:01:43;7.60;;;6.40;;
1082;SDS011;530;51.448;7.238;2024-01-15T15:04:09;6.37;;;5.60;;
1082;SDS011;530;51.448;7.238;2024-01-15T15:06:35;8.07;;;5.53;;
1082;SDS011;530;51.448;7.238;2024-01-15T15:09:02;8.43;;;6.13;;
1082;SDS011;530;51.448;7.238;2024-01-15T15:11:34;7.90;;;6.00;;
1082;SDS011;530;51.448;7.238;2024-01-15T15:14:00;6.03;;;5.33;;
1082;SDS011;530;51.448;7.238;2024-01-15T15:16:26;7.80;;;6.13;;
1082;SDS011;530;51.448;7.238;2024-01-15T15:18:52;6.53;;;5.63;;
1082;SDS011;530;51.448;7.238;2024-01-15T15:21:20;5.80;;;5.20;;
1082;SDS011;530;51.448;7.238;2024-01-15T15:23:45;8.70;;;5.40;;
1082;SDS011;530;51.448;7.238;2024-01-15T15:26:12;6.50;;;4.97;;
1082;SDS011;530;51.448;7.238;2024-01-15T15:28:38;5.63;;;5.13;;
1082;SDS011;530;51.448;7.238;2024-01-15T15:31:07;8.10;;;5.23;;
1082;SDS011;530;51.448;7.238;2024-01-15T15:33:33;6.03;;;5.07;;
1082;SDS011;530;51.448;7.238;2024-01-15T15:36:00;6.70;;;5.10;;